Time;durP1;ratioP1;P1;durP2;ratioP2;P2;SDS_P1;SDS_P2;PMS_P1;PMS_P2;Temp;Humidity;BMP_temperature;BMP_pressure;BME280_temperature;BME280_humidity;BME280_pressure;Samples;Min_cycle;Max_cycle;Signal;HPM_P1;HPM_P2
2022/11/20 00:01:27;;;;;;;15.00;10.57;;;-1.30;99.90;;;;;;5080167;28;20020;-72
2022/11/20 00:03:54;;;;;;;17.38;11.15;;;-1.40;99.90;;;;;;5078032;28;20024;-73
2022/11/20 00:06:22;;;;;;;14.30;10.35;;;-1.50;99.90;;;;;;5078551;28;20042;-72
2022/11/20 00:08:48;;;;;;;19.00;10.90;;;-1.50;99.90;;;;;;5080913;28;20124;-72
2022/11/20 00:11:18;;;;;;;15.63;9.98;;;-1.50;99.90;;;;;;5079451;28;20024;-72
2022/11/20 00:13:44;;;;;;;14.70;10.15;;;-1.50;99.90;;;;;;5079481;28;20055;-72
2022/11/20 00:16:12;;;;;;;13.70;10.05;;;-1.50;99.90;;;;;;5080741;28;20025;-72
2022/11/20 00:18:37;;;;;;;17.35;10.13;;;-1.50;99.90;;;;;;5078764;28;20028;-72
2022/11/20 00:21:07;;;;;;;18.10;9.93;;;-1.50;99.90;;;;;;5081588;28;20085;-71
2022/11/20 00:23:33;;;;;;;17.75;10.15;;;-1.50;99.90;;;;;;5078393;28;20036;-72
2022/11/20 00:26:07;;;;;;;16.55;10.52;;;-1.60;99.90;;;;;;5081030;28;20040;-72
2022/11/20 00:28:33;;;;;;;15.70;10.10;;;-1.50;99.90;;;;;;5069177;28;20016;-72
2022/11/20 00:31:17;;;;;;;17.83;10.82;;;-1.60;99.90;;;;;;5069187;28;20032;-72
2022/11/20 00:33:44;;;;;;;20.20;10.77;;;-1.60;99.90;;;;;;5071910;28;20017;-73
2022/11/20 00:36:12;;;;;;;16.98;10.75;;;-1.60;99.90;;;;;;5074291;28;20507;-73
2022/11/20 00:38:38;;;;;;;16.77;11.50;;;-1.60;99.90;;;;;;5073861;28;20027;-72
2022/11/20 00:41:06;;;;;;;19.50;11.95;;;-1.70;99.90;;;;;;5073528;28;20033;-73
2022/11/20 00:43:32;;;;;;;16.55;11.65;;;-1.70;99.90;;;;;;5074281;28;20471;-72
2022/11/20 00:45:58;;;;;;;18.80;11.88;;;-1.70;99.90;;;;;;5073884;28;20036;-72
2022/11/20 00:48:23;;;;;;;18.00;11.15;;;-1.70;99.90;;;;;;5074445;28;20380;-71
2022/11/20 00:50:49;;;;;;;18.08;11.20;;;-1.70;99.90;;;;;;5074446;28;20059;-72
2022/11/20 00:53:14;;;;;;;16.58;11.88;;;-1.70;99.90;;;;;;5073784;28;20377;-72
2022/11/20 00:55:40;;;;;;;19.33;11.30;;;-1.70;99.90;;;;;;5074980;28;20035;-73
2022/11/20 00:58:06;;;;;;;17.13;10.63;;;-1.70;99.90;;;;;;5074244;28;20036;-72
2022/11/20 01:00:31;;;;;;;16.98;10.32;;;-1.80;99.90;;;;;;5074284;28;20021;-72
2022/11/20 01:02:57;;;;;;;16.48;10.75;;;-1.80;99.90;;;;;;5074798;28;20027;-72
2022/11/20 01:05:22;;;;;;;16.73;11.02;;;-1.80;99.90;;;;;;5073407;28;20021;-72
2022/11/20 01:07:48;;;;;;;16.20;10.90;;;-1.90;99.90;;;;;;5074444;28;20020;-72
2022/11/20 01:10:13;;;;;;;24.55;14.77;;;-1.90;99.90;;;;;;5074289;28;20151;-73
2022/11/20 01:12:39;;;;;;;29.88;17.70;;;-1.90;99.90;;;;;;5073676;28;20067;-72
2022/11/20 01:15:05;;;;;;;26.02;16.30;;;-1.90;99.90;;;;;;5073381;28;20049;-72
2022/11/20 01:17:31;;;;;;;21.70;14.73;;;-1.90;99.90;;;;;;5073812;28;20039;-72
2022/11/20 01:19:57;;;;;;;18.88;12.80;;;-1.90;99.90;;;;;;5064607;28;20017;-72
2022/11/20 01:22:23;;;;;;;19.63;13.85;;;-1.90;99.90;;;;;;5073619;28;20487;-72
2022/11/20 01:24:48;;;;;;;19.67;12.80;;;-2.00;99.90;;;;;;5073523;28;20107;-72
2022/11/20 01:27:14;;;;;;;17.60;11.40;;;-1.90;99.90;;;;;;5072296;28;20048;-72
2022/11/20 01:29:39;;;;;;;18.05;11.65;;;-2.00;99.90;;;;;;5073716;28;20051;-72
2022/11/20 01:32:05;;;;;;;18.15;10.98;;;-2.00;99.90;;;;;;5074112;28;20074;-72
2022/11/20 01:34:30;;;;;;;19.20;11.23;;;-2.00;99.90;;;;;;5072555;28;20037;-72
2022/11/20 01:36:56;;;;;;;15.00;11.23;;;-2.00;99.90;;;;;;5073210;28;20044;-72
2022/11/20 01:39:24;;;;;;;16.00;10.20;;;-2.10;99.90;;;;;;5072547;28;20039;-72
2022/11/20 01:44:56;;;;;;;17.30;10.63;;;-2.20;99.90;;;;;;5074003;28;20445;-72
2022/11/20 01:47:33;;;;;;;17.85;11.40;;;-2.20;99.90;;;;;;5073332;28;20025;-72
2022/11/20 01:50:17;;;;;;;16.33;10.75;;;-2.20;99.90;;;;;;5073379;28;20419;-72
2022/11/20 01:52:54;;;;;;;16.40;11.32;;;-2.20;99.90;;;;;;5073086;28;20480;-72
2022/11/20 01:55:25;;;;;;;15.60;10.50;;;-2.30;99.90;;;;;;5072166;28;20032;-72
2022/11/20 01:57:51;;;;;;;19.70;10.57;;;-2.20;99.90;;;;;;5073240;28;20025;-72
2022/11/20 02:00:19;;;;;;;18.63;10.52;;;-2.30;99.90;;;;;;5072712;28;20115;-72
2022/11/20 02:02:51;;;;;;;20.88;11.02;;;-2.30;99.90;;;;;;5072461;28;20025;-72
2022/11/20 02:05:22;;;;;;;16.48;10.90;;;-2.20;99.90;;;;;;5072987;28;20037;-72
2022/11/20 02:07:48;;;;;;;18.55;10.57;;;-2.30;99.90;;;;;;5073499;28;20021;-72
2022/11/20 02:10:14;;;;;;;16.60;10.98;;;-2.30;99.90;;;;;;5072190;28;20024;-72
2022/11/20 02:15:24;;;;;;;16.98;10.85;;;-2.40;99.90;;;;;;5073697;28;20035;-72
2022/11/20 02:17:50;;;;;;;15.52;10.38;;;-2.40;99.90;;;;;;5073188;28;20033;-72
2022/11/20 02:20:16;;;;;;;15.23;10.05;;;-2.40;99.90;;;;;;5074234;28;20112;-72
2022/11/20 02:22:59;;;;;;;16.27;10.30;;;-2.40;99.90;;;;;;5072039;28;20024;-72
2022/11/20 02:25:27;;;;;;;16.30;10.38;;;-2.40;99.90;;;;;;5072392;28;20048;-72
2022/11/20 02:27:53;;;;;;;15.18;10.90;;;-2.50;99.90;;;;;;5071936;28;20024;-71
2022/11/20 02:30:19;;;;;;;15.18;9.05;;;-2.60;99.90;;;;;;5072174;28;20066;-72
2022/11/20 02:32:44;;;;;;;17.70;11.43;;;-2.60;99.90;;;;;;5072814;28;20111;-72
2022/11/20 02:35:30;;;;;;;20.25;10.75;;;-2.50;99.90;;;;;;5072278;28;20067;-72
2022/11/20 02:37:59;;;;;;;18.25;9.85;;;-2.50;99.90;;;;;;5070900;28;20057;-72
2022/11/20 02:40:25;;;;;;;16.95;10.20;;;-2.60;99.90;;;;;;5072167;28;20017;-72
2022/11/20 02:42:54;;;;;;;15.95;10.68;;;-2.60;99.90;;;;;;5071684;28;20025;-71
2022/11/20 02:45:20;;;;;;;18.27;11.38;;;-2.60;99.90;;;;;;5071300;28;20081;-72
2022/11/20 02:47:46;;;;;;;18.60;9.23;;;-2.70;99.90;;;;;;5071932;28;20025;-72
2022/11/20 02:50:12;;;;;;;16.35;9.73;;;-2.70;99.90;;;;;;5071428;28;20028;-72
2022/11/20 02:52:37;;;;;;;18.20;10.55;;;-2.70;99.90;;;;;;5055177;28;20024;-71
2022/11/20 02:55:03;;;;;;;16.67;10.63;;;-2.70;99.90;;;;;;5071842;28;20381;-73
2022/11/20 02:57:29;;;;;;;14.77;9.65;;;-2.70;99.90;;;;;;5072898;28;20100;-72
2022/11/20 02:59:54;;;;;;;15.55;10.07;;;-2.80;99.90;;;;;;5071517;28;20436;-71
2022/11/20 03:02:20;;;;;;;16.80;10.75;;;-2.70;99.90;;;;;;5072065;28;20082;-72
2022/11/20 03:04:46;;;;;;;15.38;10.30;;;-2.70;99.90;;;;;;5072185;28;20123;-72
2022/11/20 03:07:11;;;;;;;16.13;11.10;;;-2.80;99.90;;;;;;5071093;28;20472;-72
2022/11/20 03:09:37;;;;;;;18.45;11.02;;;-2.80;99.90;;;;;;5072183;28;20107;-72
2022/11/20 03:12:03;;;;;;;16.35;9.43;;;-2.70;99.90;;;;;;5071688;28;20043;-72
2022/11/20 03:14:28;;;;;;;19.27;11.13;;;-2.80;99.90;;;;;;5073103;28;20038;-72
2022/11/20 03:16:54;;;;;;;17.02;11.13;;;-2.80;99.90;;;;;;5071770;28;20024;-72
2022/11/20 03:19:20;;;;;;;16.95;10.55;;;-2.80;99.90;;;;;;5072402;28;20013;-72
2022/11/20 03:21:45;;;;;;;16.38;11.13;;;-2.80;99.90;;;;;;5071961;28;20113;-73
2022/11/20 03:24:14;;;;;;;15.95;11.15;;;-2.80;99.90;;;;;;5057781;28;20025;-72
2022/11/20 03:26:40;;;;;;;18.55;11.80;;;-2.70;99.90;;;;;;5071593;28;20050;-71
2022/11/20 03:29:06;;;;;;;17.55;11.35;;;-2.80;99.90;;;;;;5071322;28;20567;-72
2022/11/20 03:31:36;;;;;;;14.75;10.02;;;-2.80;99.90;;;;;;5072367;28;20052;-73
2022/11/20 03:34:02;;;;;;;15.60;10.70;;;-2.80;99.90;;;;;;5071413;28;20111;-72
2022/11/20 03:36:29;;;;;;;18.33;10.90;;;-2.80;99.90;;;;;;5071704;28;20120;-72
2022/11/20 03:38:55;;;;;;;20.88;11.32;;;-2.80;99.90;;;;;;5071236;28;20465;-72
2022/11/20 03:41:24;;;;;;;17.67;11.50;;;-2.80;99.90;;;;;;5070833;28;20027;-72
2022/11/20 03:43:52;;;;;;;17.48;11.52;;;-2.80;99.90;;;;;;5071920;28;20025;-72
2022/11/20 03:46:17;;;;;;;16.67;10.90;;;-2.70;99.90;;;;;;5071701;28;20039;-71
2022/11/20 03:48:43;;;;;;;15.82;10.40;;;-2.70;99.90;;;;;;5071238;28;20029;-73
2022/11/20 03:51:10;;;;;;;17.55;12.05;;;-2.70;99.90;;;;;;5071539;28;20434;-73
2022/11/20 03:53:35;;;;;;;17.33;10.82;;;-2.70;99.90;;;;;;5072272;28;20146;-73
2022/11/20 03:56:01;;;;;;;20.75;11.07;;;-2.70;99.90;;;;;;5070843;28;20437;-73
2022/11/20 03:58:26;;;;;;;17.30;10.20;;;-2.70;99.90;;;;;;5071716;28;20025;-72
2022/11/20 04:00:52;;;;;;;14.98;11.25;;;-2.70;99.90;;;;;;5072746;28;20028;-73
2022/11/20 04:03:17;;;;;;;18.73;11.63;;;-2.70;99.90;;;;;;5074638;28;20021;-72
2022/11/20 04:05:44;;;;;;;20.70;10.85;;;-2.80;99.90;;;;;;5075280;28;20473;-72
2022/11/20 04:08:09;;;;;;;15.77;10.98;;;-2.90;99.90;;;;;;5074117;28;20025;-72
2022/11/20 04:10:35;;;;;;;17.52;11.25;;;-2.80;99.90;;;;;;5074988;28;20024;-73
2022/11/20 04:13:00;;;;;;;15.05;10.35;;;-2.90;99.90;;;;;;5075010;28;20055;-72
2022/11/20 04:15:26;;;;;;;16.80;10.30;;;-2.90;99.90;;;;;;5074375;28;20057;-72
2022/11/20 04:17:51;;;;;;;16.75;9.88;;;-2.90;99.90;;;;;;5075016;28;20119;-73
2022/11/20 04:20:17;;;;;;;17.42;10.77;;;-2.90;99.90;;;;;;5074819;28;20020;-73
2022/11/20 04:22:42;;;;;;;19.15;10.98;;;-2.90;99.90;;;;;;5074261;28;20024;-73
2022/11/20 04:25:08;;;;;;;18.27;10.25;;;-2.90;99.90;;;;;;5074345;28;20028;-73
2022/11/20 04:27:34;;;;;;;19.02;10.05;;;-3.00;99.90;;;;;;5074721;28;20107;-71
2022/11/20 04:29:59;;;;;;;18.27;11.75;;;-2.90;99.90;;;;;;5073641;28;20480;-72
2022/11/20 04:32:25;;;;;;;20.90;11.60;;;-3.00;99.90;;;;;;5074519;28;20389;-73
2022/11/20 04:34:50;;;;;;;19.20;10.38;;;-2.90;99.90;;;;;;5074573;28;20377;-73
2022/11/20 04:37:16;;;;;;;23.73;13.52;;;-2.90;99.90;;;;;;5073954;28;20040;-72
2022/11/20 04:39:41;;;;;;;18.00;11.65;;;-2.90;99.90;;;;;;5074468;28;20025;-73
2022/11/20 04:44:53;;;;;;;19.60;11.48;;;-2.90;99.90;;;;;;5073006;28;20050;-72
2022/11/20 04:47:19;;;;;;;20.67;12.15;;;-2.80;99.90;;;;;;5074209;28;20119;-73
2022/11/20 04:49:45;;;;;;;20.83;12.32;;;-2.80;99.90;;;;;;5074357;28;20028;-72
2022/11/20 04:52:10;;;;;;;18.08;11.93;;;-2.80;99.90;;;;;;5073513;28;20468;-73
2022/11/20 04:54:36;;;;;;;19.65;11.40;;;-2.80;99.90;;;;;;5074334;28;20029;-73
2022/11/20 04:57:02;;;;;;;17.67;11.77;;;-2.80;99.90;;;;;;5074990;28;20025;-73
2022/11/20 04:59:27;;;;;;;20.77;12.23;;;-2.80;99.90;;;;;;5074082;28;20139;-72
2022/11/20 05:01:53;;;;;;;23.23;12.88;;;-2.80;99.90;;;;;;5073608;28;20016;-72
2022/11/20 05:04:18;;;;;;;20.92;11.55;;;-2.80;99.90;;;;;;5074164;28;20046;-72
2022/11/20 05:06:45;;;;;;;19.88;12.75;;;-2.70;99.90;;;;;;5073153;28;20360;-73
2022/11/20 05:09:11;;;;;;;21.52;12.20;;;-2.70;99.90;;;;;;5074212;28;20048;-73
2022/11/20 05:11:37;;;;;;;23.05;12.82;;;-2.70;99.90;;;;;;5073548;28;20119;-73
2022/11/20 05:14:02;;;;;;;18.45;12.32;;;-2.70;99.90;;;;;;5073230;28;20212;-72
2022/11/20 05:16:28;;;;;;;20.90;12.63;;;-2.70;99.90;;;;;;5074398;28;20029;-72
2022/11/20 05:18:54;;;;;;;22.25;11.98;;;-2.70;99.90;;;;;;5073219;28;20012;-72
2022/11/20 05:21:20;;;;;;;22.48;12.00;;;-2.70;99.90;;;;;;5074068;28;20025;-73
2022/11/20 05:23:46;;;;;;;17.65;11.57;;;-2.70;99.90;;;;;;5074300;28;20472;-73
2022/11/20 05:26:14;;;;;;;19.20;13.55;;;-2.70;99.90;;;;;;5080410;28;20120;-72
2022/11/20 05:28:40;;;;;;;20.17;12.80;;;-2.70;99.90;;;;;;5074444;28;20029;-72
2022/11/20 05:31:16;;;;;;;25.58;14.45;;;-2.70;99.90;;;;;;5073748;28;20181;-72
2022/11/20 05:33:43;;;;;;;20.15;12.68;;;-2.70;99.90;;;;;;5073264;28;20028;-71
2022/11/20 05:36:10;;;;;;;22.02;11.88;;;-2.70;99.90;;;;;;5073070;28;20559;-73
2022/11/20 05:38:36;;;;;;;17.85;11.68;;;-2.70;99.90;;;;;;5073546;28;20389;-72
2022/11/20 05:41:13;;;;;;;17.52;10.60;;;-2.80;99.90;;;;;;5072538;28;20024;-72
2022/11/20 05:43:41;;;;;;;16.75;11.25;;;-2.80;99.90;;;;;;5073415;28;20025;-72
2022/11/20 05:46:10;;;;;;;16.77;11.10;;;-2.80;99.90;;;;;;5073035;28;20040;-72
2022/11/20 05:48:36;;;;;;;16.50;11.52;;;-2.90;99.90;;;;;;5072297;28;20049;-72
2022/11/20 05:51:04;;;;;;;16.30;11.05;;;-2.90;99.90;;;;;;5073127;28;20389;-72
2022/11/20 05:53:31;;;;;;;17.88;10.38;;;-2.90;99.90;;;;;;5072987;28;20117;-73
2022/11/20 05:55:57;;;;;;;15.23;10.63;;;-2.90;99.90;;;;;;5071984;28;20028;-73
2022/11/20 05:58:23;;;;;;;22.00;12.90;;;-2.90;99.90;;;;;;5072926;28;20388;-72
2022/11/20 06:00:48;;;;;;;17.52;11.95;;;-2.90;99.90;;;;;;5072794;28;20025;-72
2022/11/20 06:03:14;;;;;;;17.80;12.25;;;-2.90;99.90;;;;;;5072606;28;20048;-73
2022/11/20 06:05:39;;;;;;;19.83;11.93;;;-2.90;99.90;;;;;;5072714;28;20465;-72
2022/11/20 06:08:05;;;;;;;18.23;12.38;;;-2.80;99.90;;;;;;5071848;28;20020;-73
2022/11/20 06:10:30;;;;;;;21.80;11.77;;;-2.80;99.90;;;;;;5072622;28;20028;-72
2022/11/20 06:12:58;;;;;;;20.75;11.15;;;-2.80;99.90;;;;;;5072168;28;20036;-72
2022/11/20 06:15:23;;;;;;;22.48;13.77;;;-2.70;99.90;;;;;;5071854;28;20020;-73
2022/11/20 06:17:53;;;;;;;22.58;14.15;;;-2.60;99.90;;;;;;5072758;28;20035;-73
2022/11/20 06:20:18;;;;;;;24.95;14.48;;;-2.50;99.90;;;;;;5072511;28;20052;-72
2022/11/20 06:22:44;;;;;;;19.98;12.50;;;-2.40;99.90;;;;;;5072296;28;20063;-72
2022/11/20 06:25:09;;;;;;;25.83;13.52;;;-2.40;99.90;;;;;;5072326;28;20024;-73
2022/11/20 06:27:35;;;;;;;24.45;14.38;;;-2.30;99.90;;;;;;5072464;28;20048;-72
2022/11/20 06:30:07;;;;;;;23.17;13.50;;;-2.20;99.90;;;;;;5080422;28;20069;-73
2022/11/20 06:32:33;;;;;;;24.17;13.70;;;-1.60;99.90;;;;;;5077573;28;20537;-73
2022/11/20 06:34:58;;;;;;;23.92;14.43;;;-2.20;99.90;;;;;;5072165;28;20069;-73
2022/11/20 06:37:24;;;;;;;22.27;13.00;;;-2.10;99.90;;;;;;5071747;28;20028;-73
2022/11/20 06:39:49;;;;;;;27.00;13.98;;;-2.20;99.90;;;;;;5072027;28;20021;-73
2022/11/20 06:42:15;;;;;;;24.38;12.40;;;-2.20;99.90;;;;;;5072235;28;20468;-73
2022/11/20 06:44:40;;;;;;;21.73;13.40;;;-2.20;99.90;;;;;;5071586;28;20472;-72
2022/11/20 06:47:06;;;;;;;21.38;13.68;;;-2.20;99.90;;;;;;5072373;28;20488;-72
2022/11/20 06:49:31;;;;;;;23.27;13.85;;;-2.20;99.90;;;;;;5072548;28;20376;-73
2022/11/20 06:51:57;;;;;;;22.80;13.32;;;-2.20;99.90;;;;;;5071543;28;20468;-73
2022/11/20 06:54:22;;;;;;;24.77;14.68;;;-2.20;99.90;;;;;;5072304;28;20376;-73
2022/11/20 06:56:48;;;;;;;22.70;13.82;;;-2.20;99.90;;;;;;5071988;28;20024;-72
2022/11/20 06:59:14;;;;;;;21.75;13.77;;;-2.10;99.90;;;;;;5059404;28;20082;-73
2022/11/20 07:01:40;;;;;;;25.60;14.32;;;-2.10;99.90;;;;;;5054550;28;20079;-72
2022/11/20 07:04:05;;;;;;;25.85;14.13;;;-2.10;99.90;;;;;;5050023;28;20051;-73
2022/11/20 07:06:31;;;;;;;21.45;13.57;;;-2.10;99.90;;;;;;5059798;28;20071;-73
2022/11/20 07:08:59;;;;;;;25.25;14.27;;;-2.00;99.90;;;;;;5059583;28;20472;-73
2022/11/20 07:11:25;;;;;;;31.48;16.73;;;-2.00;99.90;;;;;;5058441;28;20029;-72
2022/11/20 07:13:51;;;;;;;26.27;14.38;;;-2.00;99.90;;;;;;5053258;28;20430;-73
2022/11/20 07:16:16;;;;;;;24.60;14.30;;;-1.90;99.90;;;;;;5069202;28;20036;-72
2022/11/20 07:18:42;;;;;;;30.00;16.33;;;-1.90;99.90;;;;;;5058395;28;20033;-72
2022/11/20 07:21:10;;;;;;;22.38;13.88;;;-1.80;99.90;;;;;;5057176;28;20478;-73
2022/11/20 07:23:36;;;;;;;28.67;16.25;;;-1.70;99.90;;;;;;5054595;28;20017;-73
2022/11/20 07:26:09;;;;;;;21.83;14.20;;;-1.70;99.90;;;;;;5051634;28;20029;-71
2022/11/20 07:28:35;;;;;;;25.15;15.43;;;-1.50;99.90;;;;;;5054413;28;20057;-74
2022/11/20 07:31:01;;;;;;;26.73;16.00;;;-1.50;99.90;;;;;;5054377;28;20063;-72
2022/11/20 07:33:27;;;;;;;27.35;15.95;;;-1.40;99.90;;;;;;5051444;28;20032;-73
2022/11/20 07:35:53;;;;;;;23.17;14.73;;;-1.40;99.90;;;;;;5059289;28;20098;-73
2022/11/20 07:38:18;;;;;;;25.70;15.07;;;-1.30;99.90;;;;;;5057093;28;20100;-73
2022/11/20 07:40:44;;;;;;;25.80;15.85;;;-1.20;99.90;;;;;;5064994;28;20346;-74
2022/11/20 07:43:09;;;;;;;24.95;14.98;;;-1.10;99.90;;;;;;5058172;28;20039;-73
2022/11/20 07:45:35;;;;;;;24.23;13.63;;;-1.10;99.90;;;;;;5057920;28;20068;-72
2022/11/20 07:48:01;;;;;;;23.42;14.43;;;-1.00;99.90;;;;;;5060672;28;20023;-72
2022/11/20 07:50:29;;;;;;;26.55;14.25;;;-1.00;99.90;;;;;;5055728;28;20029;-72
2022/11/20 07:53:07;;;;;;;26.80;15.85;;;-0.90;99.90;;;;;;5056524;28;20013;-73
2022/11/20 07:55:33;;;;;;;23.00;14.63;;;-0.80;99.90;;;;;;5054453;28;20056;-73
2022/11/20 07:57:59;;;;;;;24.23;14.80;;;-0.90;99.90;;;;;;5057116;28;20048;-73
2022/11/20 08:00:26;;;;;;;23.63;15.80;;;-0.80;99.90;;;;;;5059474;28;20112;-73
2022/11/20 08:02:51;;;;;;;27.83;16.55;;;-0.80;99.90;;;;;;5056442;28;20025;-73
2022/11/20 08:05:17;;;;;;;25.08;14.95;;;-0.80;99.90;;;;;;5058802;28;20032;-73
2022/11/20 08:07:43;;;;;;;24.98;15.90;;;-0.80;99.90;;;;;;5064776;28;20517;-73
2022/11/20 08:10:11;;;;;;;25.65;15.05;;;-0.80;99.90;;;;;;5084207;28;20368;-72
2022/11/20 08:15:28;;;;;;;24.48;14.98;;;-0.70;99.90;;;;;;5074966;28;20027;-73
2022/11/20 08:18:01;;;;;;;24.27;15.32;;;-0.70;99.90;;;;;;5075352;28;20112;-72
2022/11/20 08:20:28;;;;;;;22.52;15.10;;;-0.70;99.90;;;;;;5074504;28;20028;-73
2022/11/20 08:22:58;;;;;;;24.83;15.15;;;-0.60;99.90;;;;;;5076952;28;20020;-72
2022/11/20 08:25:24;;;;;;;24.80;15.88;;;-0.50;99.90;;;;;;5076829;28;20021;-73
2022/11/20 08:27:49;;;;;;;23.33;14.73;;;-0.50;99.90;;;;;;5073637;28;20488;-73
2022/11/20 08:30:15;;;;;;;25.05;14.70;;;-0.40;99.90;;;;;;5072865;28;20575;-73
2022/11/20 08:32:40;;;;;;;24.60;14.30;;;-0.40;99.90;;;;;;5073082;28;20058;-74
2022/11/20 08:35:06;;;;;;;28.83;14.98;;;-0.30;99.90;;;;;;5073155;28;20052;-73
2022/11/20 08:37:32;;;;;;;22.58;14.57;;;-0.30;99.90;;;;;;5072105;28;20032;-72
2022/11/20 08:39:57;;;;;;;23.10;15.10;;;-0.20;99.90;;;;;;5072692;28;20107;-72
2022/11/20 08:42:24;;;;;;;24.60;15.10;;;-0.20;99.90;;;;;;5072789;28;20131;-73
2022/11/20 08:44:49;;;;;;;22.63;13.85;;;-0.10;99.90;;;;;;5071500;28;20445;-72
2022/11/20 08:47:15;;;;;;;21.88;14.60;;;-0.10;99.90;;;;;;5071224;28;20377;-72
2022/11/20 08:49:40;;;;;;;28.73;15.75;;;0.00;99.90;;;;;;5071649;28;20013;-73
2022/11/20 08:52:06;;;;;;;24.95;15.75;;;0.10;99.90;;;;;;5072134;28;20617;-72
2022/11/20 08:54:31;;;;;;;28.98;16.42;;;0.10;99.90;;;;;;5071968;28;20020;-72
2022/11/20 08:56:57;;;;;;;29.98;16.50;;;0.10;99.90;;;;;;5071380;28;20456;-71
2022/11/20 08:59:23;;;;;;;29.02;17.23;;;0.20;99.90;;;;;;5071974;28;20052;-73
2022/11/20 09:01:48;;;;;;;29.35;16.40;;;0.30;99.90;;;;;;5072092;28;20082;-73
2022/11/20 09:04:14;;;;;;;24.65;16.27;;;0.30;99.90;;;;;;5070918;28;20032;-73
2022/11/20 09:06:40;;;;;;;24.58;15.38;;;0.40;99.90;;;;;;5073643;28;20039;-73
2022/11/20 09:09:05;;;;;;;25.10;15.00;;;0.40;99.90;;;;;;5072941;28;20472;-72
2022/11/20 09:11:31;;;;;;;23.08;15.73;;;0.50;99.90;;;;;;5071443;28;20554;-74
2022/11/20 09:13:57;;;;;;;25.83;15.73;;;-0.40;99.90;;;;;;5069735;28;20426;-73
2022/11/20 09:16:22;;;;;;;25.15;15.55;;;0.50;99.90;;;;;;5064527;28;20087;-73
2022/11/20 09:18:50;;;;;;;33.90;19.02;;;0.50;99.90;;;;;;5075189;28;20017;-73
2022/11/20 09:21:16;;;;;;;34.53;19.42;;;0.60;99.90;;;;;;5073048;28;20366;-72
2022/11/20 09:23:42;;;;;;;35.72;20.27;;;0.60;99.90;;;;;;5071598;28;20073;-73
2022/11/20 09:26:12;;;;;;;33.92;18.20;;;0.60;99.90;;;;;;5070607;28;20405;-73
2022/11/20 09:28:38;;;;;;;35.45;19.95;;;0.70;99.90;;;;;;5073181;28;20162;-73
2022/11/20 09:31:25;;;;;;;36.95;20.10;;;0.70;99.90;;;;;;5071078;28;20115;-74
2022/11/20 09:33:51;;;;;;;35.97;20.42;;;0.80;99.90;;;;;;5056081;28;20021;-73
2022/11/20 09:36:18;;;;;;;32.08;18.02;;;0.80;99.90;;;;;;5067233;28;20056;-72
2022/11/20 09:38:45;;;;;;;27.35;16.48;;;0.90;99.90;;;;;;5071157;28;20032;-72
2022/11/20 09:41:45;;;;;;;28.50;17.88;;;1.00;99.90;;;;;;5071581;28;20053;-73
2022/11/20 09:44:35;;;;;;;25.27;16.15;;;1.00;99.90;;;;;;5072508;28;20021;-74
2022/11/20 09:47:16;;;;;;;26.00;15.88;;;1.10;99.90;;;;;;5067481;28;20032;-74
2022/11/20 09:50:30;;;;;;;25.85;14.93;;;1.20;99.90;;;;;;5073265;28;20020;-75
2022/11/20 09:53:35;;;;;;;27.42;16.85;;;1.20;99.90;;;;;;5013722;28;20478;-74
2022/11/20 09:56:03;;;;;;;26.88;16.30;;;1.30;99.90;;;;;;5072863;28;20586;-74
2022/11/20 09:58:35;;;;;;;25.35;16.90;;;1.30;99.90;;;;;;5073321;28;20058;-73
2022/11/20 10:01:10;;;;;;;25.40;16.13;;;1.40;99.90;;;;;;5072006;28;20125;-73
2022/11/20 10:04:00;;;;;;;24.40;16.80;;;1.40;99.90;;;;;;5072283;28;20025;-72
2022/11/20 10:06:32;;;;;;;26.58;17.00;;;1.50;99.90;;;;;;5072305;28;20446;-71
2022/11/20 10:09:10;;;;;;;26.52;16.48;;;1.60;99.90;;;;;;5071401;28;20024;-73
2022/11/20 10:11:48;;;;;;;30.48;18.15;;;1.70;99.90;;;;;;5071196;28;20032;-74
2022/11/20 10:14:18;;;;;;;26.58;16.40;;;1.70;99.90;;;;;;5068011;28;20021;-73
2022/11/20 10:17:02;;;;;;;24.48;16.88;;;1.80;99.90;;;;;;5072315;28;20484;-73
2022/11/20 10:19:39;;;;;;;26.60;16.52;;;1.80;99.90;;;;;;5068678;28;20082;-74
2022/11/20 10:22:15;;;;;;;26.27;16.60;;;1.90;99.90;;;;;;5068362;28;20468;-74
2022/11/20 10:25:22;;;;;;;25.27;16.42;;;1.90;99.90;;;;;;5070058;28;20032;-74
2022/11/20 10:27:48;;;;;;;28.13;17.45;;;1.90;99.90;;;;;;5009334;28;20072;-74
2022/11/20 10:30:17;;;;;;;30.45;18.15;;;2.00;99.90;;;;;;5009151;28;20468;-73
2022/11/20 10:32:48;;;;;;;29.75;18.10;;;2.00;99.90;;;;;;5037697;28;20082;-74
2022/11/20 10:35:18;;;;;;;29.98;18.10;;;1.90;99.90;;;;;;5056939;28;20045;-75
2022/11/20 10:37:47;;;;;;;28.42;17.92;;;2.00;99.90;;;;;;5072890;28;20465;-75
2022/11/20 10:40:34;;;;;;;32.15;18.20;;;2.00;99.90;;;;;;5071581;28;20103;-73
2022/11/20 10:43:01;;;;;;;32.28;18.10;;;2.00;99.90;;;;;;5071904;28;20070;-74
2022/11/20 10:45:27;;;;;;;26.70;18.48;;;2.00;99.90;;;;;;5071735;28;20032;-75
2022/11/20 10:48:08;;;;;;;30.58;18.88;;;2.00;99.90;;;;;;5060971;28;20021;-75
2022/11/20 10:50:40;;;;;;;30.25;19.05;;;2.00;99.90;;;;;;5054673;28;20028;-74
2022/11/20 10:53:26;;;;;;;30.02;19.48;;;2.10;99.90;;;;;;5053000;28;20017;-74
2022/11/20 10:56:04;;;;;;;32.28;19.02;;;2.10;99.90;;;;;;5051678;28;20028;-74
2022/11/20 10:58:51;;;;;;;31.95;19.02;;;2.20;99.90;;;;;;5053586;28;20017;-74
2022/11/20 11:01:23;;;;;;;38.88;19.98;;;2.20;99.90;;;;;;5059533;28;20060;-76
2022/11/20 11:03:52;;;;;;;32.53;20.00;;;2.30;99.90;;;;;;5067787;28;20023;-75
2022/11/20 11:06:34;;;;;;;35.58;20.27;;;2.30;99.90;;;;;;5069253;28;20033;-74
2022/11/20 11:09:03;;;;;;;35.92;20.85;;;2.40;99.90;;;;;;5059549;28;20029;-74
2022/11/20 11:11:33;;;;;;;38.28;21.80;;;2.40;99.90;;;;;;5074581;28;20101;-75
2022/11/20 11:14:12;;;;;;;35.28;21.23;;;2.50;99.90;;;;;;5075568;28;20052;-74
2022/11/20 11:16:55;;;;;;;39.47;20.75;;;2.50;99.90;;;;;;5076183;28;20025;-74
2022/11/20 11:19:21;;;;;;;44.33;22.13;;;2.50;99.90;;;;;;5072151;28;20031;-74
2022/11/20 11:21:57;;;;;;;35.75;20.88;;;2.50;99.90;;;;;;5058191;28;20029;-74
2022/11/20 11:24:25;;;;;;;36.15;20.77;;;2.50;99.90;;;;;;5063435;28;20098;-74
2022/11/20 11:26:59;;;;;;;38.78;22.25;;;2.50;99.90;;;;;;5076272;28;20043;-74
2022/11/20 11:29:26;;;;;;;39.83;21.65;;;2.60;99.90;;;;;;5060268;28;20113;-74
2022/11/20 11:32:04;;;;;;;38.85;20.77;;;2.60;99.90;;;;;;5073943;28;20035;-76
2022/11/20 11:34:29;;;;;;;37.80;22.00;;;2.70;99.90;;;;;;5072696;28;20476;-74
2022/11/20 11:37:00;;;;;;;46.13;24.23;;;2.70;99.90;;;;;;5073262;28;20064;-75
2022/11/20 11:39:28;;;;;;;39.00;23.30;;;2.80;99.90;;;;;;5066400;28;20017;-75
2022/11/20 11:41:54;;;;;;;45.00;25.27;;;2.80;99.90;;;;;;5077206;28;20024;-73
2022/11/20 11:47:11;;;;;;;42.55;22.70;;;2.80;99.90;;;;;;5058115;28;20039;-76
2022/11/20 11:49:37;;;;;;;43.00;24.48;;;2.90;99.90;;;;;;5077251;28;20036;-75
2022/11/20 11:52:16;;;;;;;41.65;23.48;;;2.90;99.90;;;;;;5076422;28;20028;-75
2022/11/20 11:54:49;;;;;;;41.13;23.58;;;2.90;99.90;;;;;;5070563;28;20024;-76
2022/11/20 11:57:28;;;;;;;44.83;23.20;;;2.90;99.90;;;;;;5075666;28;20017;-75
2022/11/20 12:00:12;;;;;;;47.80;24.70;;;2.90;99.90;;;;;;5083300;28;20376;-75
2022/11/20 12:02:49;;;;;;;45.17;24.23;;;2.90;99.90;;;;;;5088492;28;20020;-76
2022/11/20 12:05:25;;;;;;;46.00;23.95;;;3.00;99.90;;;;;;5085615;28;20019;-77
2022/11/20 12:08:20;;;;;;;46.20;24.70;;;3.00;99.90;;;;;;5088753;28;20039;-76
2022/11/20 12:10:52;;;;;;;49.60;25.80;;;3.10;99.90;;;;;;5079103;28;20038;-75
2022/11/20 12:13:36;;;;;;;48.13;25.38;;;3.10;99.90;;;;;;5089253;28;20475;-76
2022/11/20 12:16:03;;;;;;;40.75;22.80;;;3.20;99.90;;;;;;5086582;28;20046;-75
2022/11/20 12:18:29;;;;;;;51.58;26.30;;;3.20;99.90;;;;;;5088334;28;20103;-75
2022/11/20 12:21:32;;;;;;;46.03;25.10;;;3.20;99.90;;;;;;5080090;28;20040;-75
2022/11/20 12:24:21;;;;;;;49.33;25.25;;;3.20;99.90;;;;;;5030544;28;20029;-75
2022/11/20 12:27:04;;;;;;;51.30;25.65;;;3.30;99.90;;;;;;5064914;28;20536;-74
2022/11/20 12:29:52;;;;;;;49.05;25.08;;;3.30;99.90;;;;;;5064618;28;20016;-77
2022/11/20 12:32:39;;;;;;;44.42;22.08;;;3.30;99.90;;;;;;5057816;28;20078;-74
2022/11/20 12:35:38;;;;;;;50.97;23.95;;;3.30;99.90;;;;;;5082511;28;20040;-76
2022/11/20 12:38:18;;;;;;;40.95;22.33;;;3.40;99.90;;;;;;5061034;28;20380;-76
2022/11/20 12:40:50;;;;;;;40.95;23.42;;;3.40;99.90;;;;;;5091565;28;20032;-75
2022/11/20 12:46:33;;;;;;;43.45;22.13;;;3.40;99.90;;;;;;5090714;28;20102;-75
2022/11/20 12:49:33;;;;;;;42.78;23.33;;;3.30;99.90;;;;;;5064667;28;20464;-76
2022/11/20 12:52:27;;;;;;;44.50;24.23;;;3.30;99.90;;;;;;5079217;28;20033;-76
2022/11/20 12:55:14;;;;;;;50.13;22.38;;;3.30;99.90;;;;;;5073606;28;20701;-75
2022/11/20 12:58:03;;;;;;;46.13;23.67;;;3.30;99.90;;;;;;5067146;28;20086;-75
2022/11/20 13:00:31;;;;;;;45.25;23.92;;;3.40;99.90;;;;;;5071899;28;20035;-75